METAR KZZZ 221639Z 36007G11KT SCT024 M01/M06 A3029 RMK SLP255 T10001056 11006 21017 52023 400171044